Terminal Aerodrome Forecast
Issued by NWS

Home | Current Version | Previous Version | Text Only | Print | Product List | Glossary On
Versions: 1 2 3 4 5 6 7 8 9 10 11 12 13
000
FTUS45 KVEF 261120
TAFEED
TAF
KEED 261120Z 2612/2712 22003KT P6SM SKC
     FM261700 19012G20KT P6SM FEW120
     FM270300 21007KT P6SM FEW120 BKN250=

USA.gov is the U.S. government's official web portal to all federal, state and local government web resources and services.